Impacts METAR Board
IDs:

KCNW - Waco/Texas State Tec, TX, US

Updated at: 0200 UTC 15 Aug 2020
Potential Impact None Slight Moderate High
Time 14/14Z 14/15Z 14/16Z 14/17Z 14/18Z 14/19Z 14/20Z 14/21Z 14/22Z 14/23Z 15/00Z 15/01Z 15/02Z
Temp82 86 91 95 99 100 102 102 104 102 100 97 90
Dewpt72 72 70 68 66 64 63 63 61 57 55 57 59
Altim29.93 29.93 29.94 29.92 29.91 29.89 29.87 29.85 29.82 29.80 29.79 29.80 29.82
VIS10 10 10 10 10 10 10 10 10 10 10 10 10
CIG-- -- -- -- -- -- -- -- -- -- -- -- --
CoverSKCSKCSKCSKCSKCSKCSKCSKCSKCSKCSKCSKCSKC
FltCatVFRVFRVFRVFRVFRVFRVFRVFRVFRVFRVFRVFRVFR
WX--------------------------
WDir190210210190180180180180170170170160140
WSpd6 10 10 8 8 8 8 7 9 9 8 6 6
WGst-- -- -- -- -- -- -- 14 -- 15 -- -- --
Raw hourly METARs
KCNW 141355Z 19006KT 10SM SKC 28/22 A2993
KCNW 141455Z 21010KT 10SM SKC 30/22 A2993
KCNW 141555Z 21010KT 10SM SKC 33/21 A2994
KCNW 141655Z 19008KT 10SM SKC 35/20 A2992
KCNW 141755Z 18008KT 10SM SKC 37/19 A2991
KCNW 141855Z 18008KT 10SM SKC 38/18 A2989
KCNW 141955Z 18008KT 10SM SKC 39/17 A2987
KCNW 142055Z 18007G14KT 10SM SKC 39/17 A2985
KCNW 142155Z 17009KT 10SM SKC 40/16 A2982
KCNW 142255Z 17009G15KT 10SM SKC 39/14 A2980
KCNW 142355Z 17008KT 10SM SKC 38/13 A2979
KCNW 150055Z 16006KT 10SM SKC 36/14 A2980
KCNW 150155Z 14006KT 10SM SKC 32/15 A2982